Terminal Aerodrome Forecast
Issued by NWS

Home | Current Version | Previous Version | Text Only | Print | Product List | Glossary On
Versions: 1 2 3 4 5 6 7 8 9 10 11 12 13 14 15 16 17 18 19 20 21
000
FTUS46 KSTO 200539
TAFRDD
TAF
KRDD 200539Z 2006/2106 17020G30KT 3SM BR VCSH OVC007
     FM201100 18025G40KT P6SM -RA OVC008
     FM201600 18022G32KT P6SM VCSH OVC020
     FM202100 18025G35KT 4SM RA OVC015=

USA.gov is the U.S. government's official web portal to all federal, state and local government web resources and services.